sensor_id;sensor_type;location;lat;lon;timestamp;temperature;humidity
30148;DHT22;16960;49.404;8.248;2023-08-07T00:02:09;22.20;48.10
30148;DHT22;16960;49.404;8.248;2023-08-07T00:04:36;22.20;48.10
30148;DHT22;16960;49.404;8.248;2023-08-07T00:07:04;22.20;48.10
30148;DHT22;16960;49.404;8.248;2023-08-07T00:09:32;22.20;48.10
30148;DHT22;16960;49.404;8.248;2023-08-07T00:11:59;22.20;48.00
30148;DHT22;16960;49.404;8.248;2023-08-07T00:14:26;22.20;48.00
30148;DHT22;16960;49.404;8.248;2023-08-07T00:16:53;22.20;47.90
30148;DHT22;16960;49.404;8.248;2023-08-07T00:19:19;22.20;48.00
30148;DHT22;16960;49.404;8.248;2023-08-07T00:21:46;22.20;47.90
30148;DHT22;16960;49.404;8.248;2023-08-07T00:24:13;22.10;48.00
30148;DHT22;16960;49.404;8.248;2023-08-07T00:26:41;22.10;48.10
30148;DHT22;16960;49.404;8.248;2023-08-07T00:29:08;22.10;48.00
30148;DHT22;16960;49.404;8.248;2023-08-07T00:31:35;22.10;48.10
30148;DHT22;16960;49.404;8.248;2023-08-07T00:34:02;22.10;48.10
30148;DHT22;16960;49.404;8.248;2023-08-07T00:36:29;22.10;48.20
30148;DHT22;16960;49.404;8.248;2023-08-07T00:39:00;22.10;48.20
30148;DHT22;16960;49.404;8.248;2023-08-07T00:41:29;22.10;48.20
30148;DHT22;16960;49.404;8.248;2023-08-07T00:43:57;22.10;48.30
30148;DHT22;16960;49.404;8.248;2023-08-07T00:46:24;22.10;48.20
30148;DHT22;16960;49.404;8.248;2023-08-07T00:48:52;22.10;48.30
30148;DHT22;16960;49.404;8.248;2023-08-07T00:51:19;22.10;48.30
30148;DHT22;16960;49.404;8.248;2023-08-07T00:53:47;22.10;48.30
30148;DHT22;16960;49.404;8.248;2023-08-07T00:56:14;22.10;48.30
30148;DHT22;16960;49.404;8.248;2023-08-07T00:58:42;22.10;48.40
30148;DHT22;16960;49.404;8.248;2023-08-07T01:01:10;22.10;48.40
30148;DHT22;16960;49.404;8.248;2023-08-07T01:03:38;22.10;48.40
30148;DHT22;16960;49.404;8.248;2023-08-07T01:06:05;22.00;48.50
30148;DHT22;16960;49.404;8.248;2023-08-07T01:08:31;22.10;48.50
30148;DHT22;16960;49.404;8.248;2023-08-07T01:11:18;22.00;48.50
30148;DHT22;16960;49.404;8.248;2023-08-07T01:13:54;22.10;48.60
30148;DHT22;16960;49.404;8.248;2023-08-07T01:16:31;22.10;48.70
30148;DHT22;16960;49.404;8.248;2023-08-07T01:19:01;22.10;48.60
30148;DHT22;16960;49.404;8.248;2023-08-07T01:21:29;22.00;48.50
30148;DHT22;16960;49.404;8.248;2023-08-07T01:24:00;22.10;48.40
30148;DHT22;16960;49.404;8.248;2023-08-07T01:26:26;22.10;48.40
30148;DHT22;16960;49.404;8.248;2023-08-07T01:29:00;22.00;48.30
30148;DHT22;16960;49.404;8.248;2023-08-07T01:31:31;22.10;48.50
30148;DHT22;16960;49.404;8.248;2023-08-07T01:34:04;22.10;48.50
30148;DHT22;16960;49.404;8.248;2023-08-07T01:36:32;22.10;49.30
30148;DHT22;16960;49.404;8.248;2023-08-07T01:39:02;22.10;48.70
30148;DHT22;16960;49.404;8.248;2023-08-07T01:41:31;22.10;48.70
30148;DHT22;16960;49.404;8.248;2023-08-07T01:43:57;22.10;48.70
30148;DHT22;16960;49.404;8.248;2023-08-07T01:46:25;22.00;48.60
30148;DHT22;16960;49.404;8.248;2023-08-07T01:48:52;22.10;48.70
30148;DHT22;16960;49.404;8.248;2023-08-07T01:51:18;22.00;48.60
30148;DHT22;16960;49.404;8.248;2023-08-07T01:53:45;22.00;48.70
30148;DHT22;16960;49.404;8.248;2023-08-07T01:56:14;22.00;48.70
30148;DHT22;16960;49.404;8.248;2023-08-07T01:58:41;22.00;48.80
30148;DHT22;16960;49.404;8.248;2023-08-07T02:01:08;22.10;48.90
30148;DHT22;16960;49.404;8.248;2023-08-07T02:03:35;22.00;48.80
30148;DHT22;16960;49.404;8.248;2023-08-07T02:06:02;22.10;48.90
30148;DHT22;16960;49.404;8.248;2023-08-07T02:08:29;22.00;48.90
30148;DHT22;16960;49.404;8.248;2023-08-07T02:10:56;22.00;48.90
30148;DHT22;16960;49.404;8.248;2023-08-07T02:13:24;22.00;48.90
30148;DHT22;16960;49.404;8.248;2023-08-07T02:15:51;22.00;48.80
30148;DHT22;16960;49.404;8.248;2023-08-07T02:18:18;22.00;48.90
30148;DHT22;16960;49.404;8.248;2023-08-07T02:20:44;22.00;48.80
30148;DHT22;16960;49.404;8.248;2023-08-07T02:23:12;22.00;48.90
30148;DHT22;16960;49.404;8.248;2023-08-07T02:25:39;22.00;48.90
30148;DHT22;16960;49.404;8.248;2023-08-07T02:28:06;22.00;48.80
30148;DHT22;16960;49.404;8.248;2023-08-07T02:30:34;22.00;49.50
30148;DHT22;16960;49.404;8.248;2023-08-07T02:33:01;22.00;48.80
30148;DHT22;16960;49.404;8.248;2023-08-07T02:35:28;22.00;48.70
30148;DHT22;16960;49.404;8.248;2023-08-07T02:37:55;22.00;48.70
30148;DHT22;16960;49.404;8.248;2023-08-07T02:40:22;22.00;48.90
30148;DHT22;16960;49.404;8.248;2023-08-07T02:42:49;22.00;49.50
30148;DHT22;16960;49.404;8.248;2023-08-07T02:45:16;22.00;48.80
30148;DHT22;16960;49.404;8.248;2023-08-07T02:47:44;22.00;48.80
30148;DHT22;16960;49.404;8.248;2023-08-07T02:50:11;22.00;48.80
30148;DHT22;16960;49.404;8.248;2023-08-07T02:52:38;22.00;48.80
30148;DHT22;16960;49.404;8.248;2023-08-07T02:55:05;22.00;48.70
30148;DHT22;16960;49.404;8.248;2023-08-07T02:57:32;22.00;48.70
30148;DHT22;16960;49.404;8.248;2023-08-07T02:59:59;22.00;48.70
30148;DHT22;16960;49.404;8.248;2023-08-07T03:02:26;22.00;48.60
30148;DHT22;16960;49.404;8.248;2023-08-07T03:04:55;22.00;48.60
30148;DHT22;16960;49.404;8.248;2023-08-07T03:07:22;21.90;48.60
30148;DHT22;16960;49.404;8.248;2023-08-07T03:09:49;22.00;48.60
30148;DHT22;16960;49.404;8.248;2023-08-07T03:12:16;22.00;48.60
30148;DHT22;16960;49.404;8.248;2023-08-07T03:14:43;22.00;48.90
30148;DHT22;16960;49.404;8.248;2023-08-07T03:17:10;21.90;48.60
30148;DHT22;16960;49.404;8.248;2023-08-07T03:19:36;21.90;48.50
30148;DHT22;16960;49.404;8.248;2023-08-07T03:22:05;21.90;48.60
30148;DHT22;16960;49.404;8.248;2023-08-07T03:24:32;21.90;48.60
30148;DHT22;16960;49.404;8.248;2023-08-07T03:26:59;21.90;48.60
30148;DHT22;16960;49.404;8.248;2023-08-07T03:29:26;21.90;48.60
30148;DHT22;16960;49.404;8.248;2023-08-07T03:31:53;21.90;48.60
30148;DHT22;16960;49.404;8.248;2023-08-07T03:34:20;21.90;48.70
30148;DHT22;16960;49.404;8.248;2023-08-07T03:36:47;21.90;48.80
30148;DHT22;16960;49.404;8.248;2023-08-07T03:39:15;21.90;48.90
30148;DHT22;16960;49.404;8.248;2023-08-07T03:41:42;21.90;48.90
30148;DHT22;16960;49.404;8.248;2023-08-07T03:44:09;21.90;48.90
30148;DHT22;16960;49.404;8.248;2023-08-07T03:46:36;21.90;48.90
30148;DHT22;16960;49.404;8.248;2023-08-07T03:49:02;21.90;48.80
30148;DHT22;16960;49.404;8.248;2023-08-07T03:51:29;21.90;48.70
30148;DHT22;16960;49.404;8.248;2023-08-07T03:53:57;21.90;48.60
30148;DHT22;16960;49.404;8.248;2023-08-07T03:56:26;21.90;48.60
30148;DHT22;16960;49.404;8.248;2023-08-07T03:58:53;21.90;48.70
30148;DHT22;16960;49.404;8.248;2023-08-07T04:01:20;21.90;48.80
30148;DHT22;16960;49.404;8.248;2023-08-07T04:03:47;21.90;48.80
30148;DHT22;16960;49.404;8.248;2023-08-07T04:06:14;21.90;48.70
30148;DHT22;16960;49.404;8.248;2023-08-07T04:08:42;21.90;48.70
30148;DHT22;16960;49.404;8.248;2023-08-07T04:11:09;21.90;48.80
30148;DHT22;16960;49.404;8.248;2023-08-07T04:13:37;21.90;48.90
30148;DHT22;16960;49.404;8.248;2023-08-07T04:16:05;21.90;48.90
30148;DHT22;16960;49.404;8.248;2023-08-07T04:18:32;21.90;48.90
30148;DHT22;16960;49.404;8.248;2023-08-07T04:20:59;21.90;49.00
30148;DHT22;16960;49.404;8.248;2023-08-07T04:23:26;21.90;49.00
30148;DHT22;16960;49.404;8.248;2023-08-07T04:25:53;21.80;49.00
30148;DHT22;16960;49.404;8.248;2023-08-07T04:28:21;21.80;49.00
30148;DHT22;16960;49.404;8.248;2023-08-07T04:30:51;21.80;49.00
30148;DHT22;16960;49.404;8.248;2023-08-07T04:33:18;21.80;49.10
30148;DHT22;16960;49.404;8.248;2023-08-07T04:35:45;21.80;49.00
30148;DHT22;16960;49.404;8.248;2023-08-07T04:38:13;21.80;48.90
30148;DHT22;16960;49.404;8.248;2023-08-07T04:40:43;21.80;48.80
30148;DHT22;16960;49.404;8.248;2023-08-07T04:43:11;21.90;48.90
30148;DHT22;16960;49.404;8.248;2023-08-07T04:45:46;21.90;48.90
30148;DHT22;16960;49.404;8.248;2023-08-07T04:48:14;21.90;48.80
30148;DHT22;16960;49.404;8.248;2023-08-07T04:50:42;21.90;48.80
30148;DHT22;16960;49.404;8.248;2023-08-07T04:53:09;21.90;48.80
30148;DHT22;16960;49.404;8.248;2023-08-07T04:55:36;21.90;48.80
30148;DHT22;16960;49.404;8.248;2023-08-07T04:58:03;21.90;48.70
30148;DHT22;16960;49.404;8.248;2023-08-07T05:00:31;21.90;48.90
30148;DHT22;16960;49.404;8.248;2023-08-07T05:02:58;21.80;48.90
30148;DHT22;16960;49.404;8.248;2023-08-07T05:05:27;21.90;48.90
30148;DHT22;16960;49.404;8.248;2023-08-07T05:07:55;21.90;49.00
30148;DHT22;16960;49.404;8.248;2023-08-07T05:10:23;21.90;49.10
30148;DHT22;16960;49.404;8.248;2023-08-07T05:12:50;21.80;49.00
30148;DHT22;16960;49.404;8.248;2023-08-07T05:15:21;21.80;49.00
30148;DHT22;16960;49.404;8.248;2023-08-07T05:17:48;21.80;49.00
30148;DHT22;16960;49.404;8.248;2023-08-07T05:20:15;21.70;49.10
30148;DHT22;16960;49.404;8.248;2023-08-07T05:22:44;21.80;49.20
30148;DHT22;16960;49.404;8.248;2023-08-07T05:25:11;21.70;49.20
30148;DHT22;16960;49.404;8.248;2023-08-07T05:27:41;21.70;49.10
30148;DHT22;16960;49.404;8.248;2023-08-07T05:30:09;21.70;49.00
30148;DHT22;16960;49.404;8.248;2023-08-07T05:32:36;21.70;48.70
30148;DHT22;16960;49.404;8.248;2023-08-07T05:35:04;21.80;48.50
30148;DHT22;16960;49.404;8.248;2023-08-07T05:37:32;21.80;48.60
30148;DHT22;16960;49.404;8.248;2023-08-07T05:40:01;21.80;48.50
30148;DHT22;16960;49.404;8.248;2023-08-07T05:42:28;21.80;48.40
30148;DHT22;16960;49.404;8.248;2023-08-07T05:44:55;21.80;48.40
30148;DHT22;16960;49.404;8.248;2023-08-07T05:47:22;21.80;48.30
30148;DHT22;16960;49.404;8.248;2023-08-07T05:49:49;21.70;48.30
30148;DHT22;16960;49.404;8.248;2023-08-07T05:52:17;21.70;48.10
30148;DHT22;16960;49.404;8.248;2023-08-07T05:54:44;21.70;48.10
30148;DHT22;16960;49.404;8.248;2023-08-07T05:57:12;21.70;48.10
30148;DHT22;16960;49.404;8.248;2023-08-07T05:59:39;21.70;48.10
30148;DHT22;16960;49.404;8.248;2023-08-07T06:02:06;21.70;48.10
30148;DHT22;16960;49.404;8.248;2023-08-07T06:04:36;21.70;48.00
30148;DHT22;16960;49.404;8.248;2023-08-07T06:07:03;21.70;48.10
30148;DHT22;16960;49.404;8.248;2023-08-07T06:09:31;21.70;48.10
30148;DHT22;16960;49.404;8.248;2023-08-07T06:11:57;21.70;48.00
30148;DHT22;16960;49.404;8.248;2023-08-07T06:14:26;21.60;48.00
30148;DHT22;16960;49.404;8.248;2023-08-07T06:16:53;21.70;48.00
30148;DHT22;16960;49.404;8.248;2023-08-07T06:19:20;21.60;48.00
30148;DHT22;16960;49.404;8.248;2023-08-07T06:21:48;21.60;47.90
30148;DHT22;16960;49.404;8.248;2023-08-07T06:24:14;21.60;48.00
30148;DHT22;16960;49.404;8.248;2023-08-07T06:26:41;21.60;48.10
30148;DHT22;16960;49.404;8.248;2023-08-07T06:29:09;21.60;48.10
30148;DHT22;16960;49.404;8.248;2023-08-07T06:31:37;21.60;48.10
30148;DHT22;16960;49.404;8.248;2023-08-07T06:34:04;21.60;48.10
30148;DHT22;16960;49.404;8.248;2023-08-07T06:36:31;21.60;48.10
30148;DHT22;16960;49.404;8.248;2023-08-07T06:38:58;21.60;48.10
30148;DHT22;16960;49.404;8.248;2023-08-07T06:41:25;21.60;48.20
30148;DHT22;16960;49.404;8.248;2023-08-07T06:43:51;21.60;48.10
30148;DHT22;16960;49.404;8.248;2023-08-07T06:46:18;21.60;48.10
30148;DHT22;16960;49.404;8.248;2023-08-07T06:48:51;21.60;48.10
30148;DHT22;16960;49.404;8.248;2023-08-07T06:51:18;21.60;48.40
30148;DHT22;16960;49.404;8.248;2023-08-07T06:53:44;21.50;48.30
30148;DHT22;16960;49.404;8.248;2023-08-07T06:56:11;21.60;48.20
30148;DHT22;16960;49.404;8.248;2023-08-07T06:58:38;21.60;48.10
30148;DHT22;16960;49.404;8.248;2023-08-07T07:01:05;21.60;47.90
30148;DHT22;16960;49.404;8.248;2023-08-07T07:03:32;21.60;47.80
30148;DHT22;16960;49.404;8.248;2023-08-07T07:06:00;21.60;47.80
30148;DHT22;16960;49.404;8.248;2023-08-07T07:08:27;21.60;47.70
30148;DHT22;16960;49.404;8.248;2023-08-07T07:10:54;21.60;47.70
30148;DHT22;16960;49.404;8.248;2023-08-07T07:13:22;21.60;47.60
30148;DHT22;16960;49.404;8.248;2023-08-07T07:15:53;21.60;47.50
30148;DHT22;16960;49.404;8.248;2023-08-07T07:18:20;21.60;47.50
30148;DHT22;16960;49.404;8.248;2023-08-07T07:20:47;21.60;47.40
30148;DHT22;16960;49.404;8.248;2023-08-07T07:23:15;21.60;47.50
30148;DHT22;16960;49.404;8.248;2023-08-07T07:25:42;21.50;47.50
30148;DHT22;16960;49.404;8.248;2023-08-07T07:28:09;21.50;47.40
30148;DHT22;16960;49.404;8.248;2023-08-07T07:30:36;21.60;47.40
30148;DHT22;16960;49.404;8.248;2023-08-07T07:33:05;21.50;47.50
30148;DHT22;16960;49.404;8.248;2023-08-07T07:35:33;21.50;47.40
30148;DHT22;16960;49.404;8.248;2023-08-07T07:38:03;21.50;47.20
30148;DHT22;16960;49.404;8.248;2023-08-07T07:40:31;21.50;47.10
30148;DHT22;16960;49.404;8.248;2023-08-07T07:42:57;21.50;47.10
30148;DHT22;16960;49.404;8.248;2023-08-07T07:45:24;21.40;47.10
30148;DHT22;16960;49.404;8.248;2023-08-07T07:47:51;21.40;47.10
30148;DHT22;16960;49.404;8.248;2023-08-07T07:50:18;21.40;47.20
30148;DHT22;16960;49.404;8.248;2023-08-07T07:52:45;21.40;47.10
30148;DHT22;16960;49.404;8.248;2023-08-07T07:55:12;21.40;46.90
30148;DHT22;16960;49.404;8.248;2023-08-07T07:57:41;21.40;46.80
30148;DHT22;16960;49.404;8.248;2023-08-07T08:00:08;21.40;46.80
30148;DHT22;16960;49.404;8.248;2023-08-07T08:02:37;21.30;46.80
30148;DHT22;16960;49.404;8.248;2023-08-07T08:05:04;21.40;46.80
30148;DHT22;16960;49.404;8.248;2023-08-07T08:07:32;21.30;46.80
30148;DHT22;16960;49.404;8.248;2023-08-07T08:10:00;21.30;46.80
30148;DHT22;16960;49.404;8.248;2023-08-07T08:12:27;21.30;46.60
30148;DHT22;16960;49.404;8.248;2023-08-07T08:14:55;21.30;46.60
30148;DHT22;16960;49.404;8.248;2023-08-07T08:17:23;21.30;46.40
30148;DHT22;16960;49.404;8.248;2023-08-07T08:19:50;21.30;46.40
30148;DHT22;16960;49.404;8.248;2023-08-07T08:22:17;21.30;46.20
30148;DHT22;16960;49.404;8.248;2023-08-07T08:24:44;21.30;46.20
30148;DHT22;16960;49.404;8.248;2023-08-07T08:27:11;21.30;46.00
30148;DHT22;16960;49.404;8.248;2023-08-07T08:29:38;21.30;45.90
30148;DHT22;16960;49.404;8.248;2023-08-07T08:32:06;21.30;45.80
30148;DHT22;16960;49.404;8.248;2023-08-07T08:34:34;21.30;45.90
30148;DHT22;16960;49.404;8.248;2023-08-07T08:37:01;21.30;45.90
30148;DHT22;16960;49.404;8.248;2023-08-07T08:39:31;21.20;45.90
30148;DHT22;16960;49.404;8.248;2023-08-07T08:41:59;21.30;45.90
30148;DHT22;16960;49.404;8.248;2023-08-07T08:44:26;21.30;45.80
30148;DHT22;16960;49.404;8.248;2023-08-07T08:46:59;21.30;45.80
30148;DHT22;16960;49.404;8.248;2023-08-07T08:49:33;21.30;45.70
30148;DHT22;16960;49.404;8.248;2023-08-07T08:52:02;21.30;45.70
30148;DHT22;16960;49.404;8.248;2023-08-07T08:54:30;21.40;45.90
30148;DHT22;16960;49.404;8.248;2023-08-07T08:56:58;21.40;45.90
30148;DHT22;16960;49.404;8.248;2023-08-07T08:59:25;21.40;45.70
30148;DHT22;16960;49.404;8.248;2023-08-07T09:01:52;21.40;45.50
30148;DHT22;16960;49.404;8.248;2023-08-07T09:04:19;21.40;45.50
30148;DHT22;16960;49.404;8.248;2023-08-07T09:06:48;21.40;45.50
30148;DHT22;16960;49.404;8.248;2023-08-07T09:09:17;21.40;45.60
30148;DHT22;16960;49.404;8.248;2023-08-07T09:11:45;21.40;45.60
30148;DHT22;16960;49.404;8.248;2023-08-07T09:14:16;21.40;45.40
30148;DHT22;16960;49.404;8.248;2023-08-07T09:16:43;21.40;45.30
30148;DHT22;16960;49.404;8.248;2023-08-07T09:19:11;21.40;45.30
30148;DHT22;16960;49.404;8.248;2023-08-07T09:21:38;21.40;45.20
30148;DHT22;16960;49.404;8.248;2023-08-07T09:24:07;21.40;45.20
30148;DHT22;16960;49.404;8.248;2023-08-07T09:26:35;21.40;45.30
30148;DHT22;16960;49.404;8.248;2023-08-07T09:29:02;21.40;45.40
30148;DHT22;16960;49.404;8.248;2023-08-07T09:31:29;21.40;45.40
30148;DHT22;16960;49.404;8.248;2023-08-07T09:34:01;21.40;45.30
30148;DHT22;16960;49.404;8.248;2023-08-07T09:36:30;21.40;45.30
30148;DHT22;16960;49.404;8.248;2023-08-07T09:39:00;21.40;45.40
30148;DHT22;16960;49.404;8.248;2023-08-07T09:41:30;21.40;45.40
30148;DHT22;16960;49.404;8.248;2023-08-07T09:43:58;21.40;45.50
30148;DHT22;16960;49.404;8.248;2023-08-07T09:46:26;21.40;45.50
30148;DHT22;16960;49.404;8.248;2023-08-07T09:48:57;21.40;45.40
30148;DHT22;16960;49.404;8.248;2023-08-07T09:51:25;21.50;45.70
30148;DHT22;16960;49.404;8.248;2023-08-07T09:53:52;21.40;45.80
30148;DHT22;16960;49.404;8.248;2023-08-07T09:56:19;21.40;45.80
30148;DHT22;16960;49.404;8.248;2023-08-07T09:58:50;21.40;45.70
30148;DHT22;16960;49.404;8.248;2023-08-07T10:01:20;21.40;45.60
30148;DHT22;16960;49.404;8.248;2023-08-07T10:03:47;21.40;45.80
30148;DHT22;16960;49.404;8.248;2023-08-07T10:06:17;21.40;45.70
30148;DHT22;16960;49.404;8.248;2023-08-07T10:08:45;21.40;45.50
30148;DHT22;16960;49.404;8.248;2023-08-07T10:11:12;21.40;45.50
30148;DHT22;16960;49.404;8.248;2023-08-07T10:13:40;21.50;45.80
30148;DHT22;16960;49.404;8.248;2023-08-07T10:16:09;21.40;45.90
30148;DHT22;16960;49.404;8.248;2023-08-07T10:18:36;21.50;46.00
30148;DHT22;16960;49.404;8.248;2023-08-07T10:21:05;21.50;46.00
30148;DHT22;16960;49.404;8.248;2023-08-07T10:23:35;21.40;46.00
30148;DHT22;16960;49.404;8.248;2023-08-07T10:26:03;21.40;45.90
30148;DHT22;16960;49.404;8.248;2023-08-07T10:28:33;21.50;46.10
30148;DHT22;16960;49.404;8.248;2023-08-07T10:31:04;21.50;46.00
30148;DHT22;16960;49.404;8.248;2023-08-07T10:33:33;21.50;46.00
30148;DHT22;16960;49.404;8.248;2023-08-07T10:36:00;21.50;46.10
30148;DHT22;16960;49.404;8.248;2023-08-07T10:38:35;21.50;46.10
30148;DHT22;16960;49.404;8.248;2023-08-07T10:41:05;21.50;46.10
30148;DHT22;16960;49.404;8.248;2023-08-07T10:43:36;21.60;46.20
30148;DHT22;16960;49.404;8.248;2023-08-07T10:46:04;21.50;46.20
30148;DHT22;16960;49.404;8.248;2023-08-07T10:48:42;21.50;46.30
30148;DHT22;16960;49.404;8.248;2023-08-07T10:51:12;21.50;46.20
30148;DHT22;16960;49.404;8.248;2023-08-07T10:53:41;21.50;46.00
30148;DHT22;16960;49.404;8.248;2023-08-07T10:56:10;21.50;45.90
30148;DHT22;16960;49.404;8.248;2023-08-07T10:58:39;21.50;45.80
30148;DHT22;16960;49.404;8.248;2023-08-07T11:01:17;21.50;46.10
30148;DHT22;16960;49.404;8.248;2023-08-07T11:03:49;21.60;45.90
30148;DHT22;16960;49.404;8.248;2023-08-07T11:06:17;21.60;45.80
30148;DHT22;16960;49.404;8.248;2023-08-07T11:08:44;21.50;45.50
30148;DHT22;16960;49.404;8.248;2023-08-07T11:11:10;21.50;45.50
30148;DHT22;16960;49.404;8.248;2023-08-07T11:13:37;21.50;45.80
30148;DHT22;16960;49.404;8.248;2023-08-07T11:16:05;21.50;45.90
30148;DHT22;16960;49.404;8.248;2023-08-07T11:18:32;21.50;46.10
30148;DHT22;16960;49.404;8.248;2023-08-07T11:21:02;21.50;46.10
30148;DHT22;16960;49.404;8.248;2023-08-07T11:23:29;21.50;46.10
30148;DHT22;16960;49.404;8.248;2023-08-07T11:25:56;21.60;46.10
30148;DHT22;16960;49.404;8.248;2023-08-07T11:28:24;21.60;46.00
30148;DHT22;16960;49.404;8.248;2023-08-07T11:30:52;21.60;46.10
30148;DHT22;16960;49.404;8.248;2023-08-07T11:33:21;21.60;46.10
30148;DHT22;16960;49.404;8.248;2023-08-07T11:35:49;21.60;46.00
30148;DHT22;16960;49.404;8.248;2023-08-07T11:38:30;21.60;46.00
30148;DHT22;16960;49.404;8.248;2023-08-07T11:40:59;21.60;46.00
30148;DHT22;16960;49.404;8.248;2023-08-07T11:43:27;21.70;46.00
30148;DHT22;16960;49.404;8.248;2023-08-07T11:45:56;21.70;45.90
30148;DHT22;16960;49.404;8.248;2023-08-07T11:48:24;21.60;45.80
30148;DHT22;16960;49.404;8.248;2023-08-07T11:50:52;21.70;46.00
30148;DHT22;16960;49.404;8.248;2023-08-07T11:53:21;21.70;45.90
30148;DHT22;16960;49.404;8.248;2023-08-07T11:55:52;21.70;46.00
30148;DHT22;16960;49.404;8.248;2023-08-07T11:58:20;21.70;46.00
30148;DHT22;16960;49.404;8.248;2023-08-07T12:00:47;21.70;45.90
30148;DHT22;16960;49.404;8.248;2023-08-07T12:03:27;21.70;45.90
30148;DHT22;16960;49.404;8.248;2023-08-07T12:05:56;21.70;45.80
30148;DHT22;16960;49.404;8.248;2023-08-07T12:08:25;21.70;45.70
30148;DHT22;16960;49.404;8.248;2023-08-07T12:11:01;21.70;45.60
30148;DHT22;16960;49.404;8.248;2023-08-07T12:13:28;21.80;45.70
30148;DHT22;16960;49.404;8.248;2023-08-07T12:15:57;21.80;45.70
30148;DHT22;16960;49.404;8.248;2023-08-07T12:18:26;21.90;45.90
30148;DHT22;16960;49.404;8.248;2023-08-07T12:20:57;21.90;45.80
30148;DHT22;16960;49.404;8.248;2023-08-07T12:23:26;21.90;45.70
30148;DHT22;16960;49.404;8.248;2023-08-07T12:25:55;22.00;45.70
30148;DHT22;16960;49.404;8.248;2023-08-07T12:28:23;22.00;45.50
30148;DHT22;16960;49.404;8.248;2023-08-07T12:30:51;22.00;45.60
30148;DHT22;16960;49.404;8.248;2023-08-07T12:33:18;22.10;45.60
30148;DHT22;16960;49.404;8.248;2023-08-07T12:35:45;22.10;45.30
30148;DHT22;16960;49.404;8.248;2023-08-07T12:38:13;22.20;45.10
30148;DHT22;16960;49.404;8.248;2023-08-07T12:40:42;22.20;45.00
30148;DHT22;16960;49.404;8.248;2023-08-07T12:43:09;22.20;44.70
30148;DHT22;16960;49.404;8.248;2023-08-07T12:45:37;22.30;44.40
30148;DHT22;16960;49.404;8.248;2023-08-07T12:48:04;22.40;44.60
30148;DHT22;16960;49.404;8.248;2023-08-07T12:50:32;22.40;44.40
30148;DHT22;16960;49.404;8.248;2023-08-07T12:52:59;22.50;44.40
30148;DHT22;16960;49.404;8.248;2023-08-07T12:55:26;22.50;44.10
30148;DHT22;16960;49.404;8.248;2023-08-07T12:57:55;22.60;44.00
30148;DHT22;16960;49.404;8.248;2023-08-07T13:00:23;22.60;44.00
30148;DHT22;16960;49.404;8.248;2023-08-07T13:02:51;22.60;43.80
30148;DHT22;16960;49.404;8.248;2023-08-07T13:05:19;22.70;43.70
30148;DHT22;16960;49.404;8.248;2023-08-07T13:07:47;22.70;43.70
30148;DHT22;16960;49.404;8.248;2023-08-07T13:10:15;22.80;43.70
30148;DHT22;16960;49.404;8.248;2023-08-07T13:12:44;22.80;43.60
30148;DHT22;16960;49.404;8.248;2023-08-07T13:15:14;22.80;43.40
30148;DHT22;16960;49.404;8.248;2023-08-07T13:17:42;22.90;43.30
30148;DHT22;16960;49.404;8.248;2023-08-07T13:20:10;23.00;43.00
30148;DHT22;16960;49.404;8.248;2023-08-07T13:22:39;23.00;42.90
30148;DHT22;16960;49.404;8.248;2023-08-07T13:25:07;23.10;43.00
30148;DHT22;16960;49.404;8.248;2023-08-07T13:27:36;23.10;42.90
30148;DHT22;16960;49.404;8.248;2023-08-07T13:30:04;23.20;42.90
30148;DHT22;16960;49.404;8.248;2023-08-07T13:32:33;23.20;42.80
30148;DHT22;16960;49.404;8.248;2023-08-07T13:35:00;23.30;42.90
30148;DHT22;16960;49.404;8.248;2023-08-07T13:37:28;23.30;42.80
30148;DHT22;16960;49.404;8.248;2023-08-07T13:39:55;23.40;42.90
30148;DHT22;16960;49.404;8.248;2023-08-07T13:42:24;23.40;42.90
30148;DHT22;16960;49.404;8.248;2023-08-07T13:44:51;23.50;42.90
30148;DHT22;16960;49.404;8.248;2023-08-07T13:47:18;23.50;42.80
30148;DHT22;16960;49.404;8.248;2023-08-07T13:49:47;23.50;42.90
30148;DHT22;16960;49.404;8.248;2023-08-07T13:52:14;23.60;42.80
30148;DHT22;16960;49.404;8.248;2023-08-07T13:54:41;23.60;42.80
30148;DHT22;16960;49.404;8.248;2023-08-07T13:57:08;23.60;42.70
30148;DHT22;16960;49.404;8.248;2023-08-07T13:59:35;23.70;42.90
30148;DHT22;16960;49.404;8.248;2023-08-07T14:02:03;23.70;42.90
30148;DHT22;16960;49.404;8.248;2023-08-07T14:04:29;23.70;43.00
30148;DHT22;16960;49.404;8.248;2023-08-07T14:06:59;23.70;42.90
30148;DHT22;16960;49.404;8.248;2023-08-07T14:09:26;23.70;42.80
30148;DHT22;16960;49.404;8.248;2023-08-07T14:11:53;23.70;42.90
30148;DHT22;16960;49.404;8.248;2023-08-07T14:14:21;23.80;42.80
30148;DHT22;16960;49.404;8.248;2023-08-07T14:16:48;23.80;42.80
30148;DHT22;16960;49.404;8.248;2023-08-07T14:19:15;23.80;42.80
30148;DHT22;16960;49.404;8.248;2023-08-07T14:21:42;23.80;42.80
30148;DHT22;16960;49.404;8.248;2023-08-07T14:24:10;23.90;42.80
30148;DHT22;16960;49.404;8.248;2023-08-07T14:26:37;23.90;42.70
30148;DHT22;16960;49.404;8.248;2023-08-07T14:29:04;23.90;42.80
30148;DHT22;16960;49.404;8.248;2023-08-07T14:31:31;23.90;42.70
30148;DHT22;16960;49.404;8.248;2023-08-07T14:33:57;23.90;42.60
30148;DHT22;16960;49.404;8.248;2023-08-07T14:36:24;24.00;42.50
30148;DHT22;16960;49.404;8.248;2023-08-07T14:38:51;23.90;42.50
30148;DHT22;16960;49.404;8.248;2023-08-07T14:41:20;24.00;42.50
30148;DHT22;16960;49.404;8.248;2023-08-07T14:43:46;24.00;42.50
30148;DHT22;16960;49.404;8.248;2023-08-07T14:46:13;24.00;42.50
30148;DHT22;16960;49.404;8.248;2023-08-07T14:48:40;24.10;42.60
30148;DHT22;16960;49.404;8.248;2023-08-07T14:51:07;24.10;42.70
30148;DHT22;16960;49.404;8.248;2023-08-07T14:53:34;24.10;42.60
30148;DHT22;16960;49.404;8.248;2023-08-07T14:56:01;24.10;42.60
30148;DHT22;16960;49.404;8.248;2023-08-07T14:58:29;24.10;42.60
30148;DHT22;16960;49.404;8.248;2023-08-07T15:00:58;24.20;42.60
30148;DHT22;16960;49.404;8.248;2023-08-07T15:03:25;24.20;42.60
30148;DHT22;16960;49.404;8.248;2023-08-07T15:05:52;24.20;42.60
30148;DHT22;16960;49.404;8.248;2023-08-07T15:08:18;24.20;42.50
30148;DHT22;16960;49.404;8.248;2023-08-07T15:10:45;24.20;42.40
30148;DHT22;16960;49.404;8.248;2023-08-07T15:13:12;24.20;42.40
30148;DHT22;16960;49.404;8.248;2023-08-07T15:15:41;24.20;42.40
30148;DHT22;16960;49.404;8.248;2023-08-07T15:18:07;24.20;42.50
30148;DHT22;16960;49.404;8.248;2023-08-07T15:20:34;24.20;42.50
30148;DHT22;16960;49.404;8.248;2023-08-07T15:23:02;24.20;42.50
30148;DHT22;16960;49.404;8.248;2023-08-07T15:25:29;24.30;42.60
30148;DHT22;16960;49.404;8.248;2023-08-07T15:27:56;24.30;42.60
30148;DHT22;16960;49.404;8.248;2023-08-07T15:30:27;24.30;42.50
30148;DHT22;16960;49.404;8.248;2023-08-07T15:32:56;24.30;42.50
30148;DHT22;16960;49.404;8.248;2023-08-07T15:35:23;24.30;42.50